createdAt,value
2019-02-16T00:01:19.731Z,9.00
2019-02-16T00:03:46.099Z,9.00
2019-02-16T00:06:12.483Z,9.13
2019-02-16T00:08:38.943Z,8.87
2019-02-16T00:11:05.391Z,9.20
2019-02-16T00:13:31.873Z,9.67
2019-02-16T00:15:58.319Z,10.17
2019-02-16T00:18:24.695Z,9.73
2019-02-16T00:20:51.192Z,9.13
2019-02-16T00:23:17.535Z,9.47
2019-02-16T00:25:44.002Z,9.23
2019-02-16T00:28:10.552Z,9.20
2019-02-16T00:30:37.019Z,10.47
2019-02-16T00:33:03.596Z,9.10
2019-02-16T00:35:29.983Z,10.47
2019-02-16T00:37:56.533Z,10.03
2019-02-16T00:40:22.905Z,9.10
2019-02-16T00:42:49.447Z,9.53
2019-02-16T00:45:15.816Z,9.10
2019-02-16T00:47:42.265Z,11.17
2019-02-16T00:50:08.730Z,11.73
2019-02-16T00:52:35.115Z,16.33
2019-02-16T00:55:01.695Z,25.23
2019-02-16T00:57:28.143Z,20.00
2019-02-16T00:59:54.607Z,15.70
2019-02-16T01:02:21.154Z,18.77
2019-02-16T01:04:47.540Z,22.50
2019-02-16T01:07:13.987Z,16.97
2019-02-16T01:09:40.462Z,13.90
2019-02-16T01:12:06.998Z,12.83
2019-02-16T01:14:33.543Z,12.67
2019-02-16T01:17:00.012Z,14.47
2019-02-16T01:19:26.463Z,13.30
2019-02-16T01:21:52.843Z,11.90
2019-02-16T01:24:19.428Z,10.33
2019-02-16T01:26:45.897Z,11.43
2019-02-16T01:29:12.337Z,10.57
2019-02-16T01:31:38.943Z,9.57
2019-02-16T01:34:05.399Z,9.60
2019-02-16T01:36:31.965Z,10.73
2019-02-16T01:38:58.411Z,9.77
2019-02-16T01:41:24.885Z,10.03
2019-02-16T01:43:51.435Z,9.90
2019-02-16T01:46:17.898Z,9.90
2019-02-16T01:48:44.348Z,9.63
2019-02-16T01:51:10.735Z,9.30
2019-02-16T01:53:37.088Z,9.87
2019-02-16T01:56:03.456Z,8.37
2019-02-16T01:58:29.805Z,9.20
2019-02-16T02:00:56.251Z,8.73
2019-02-16T02:03:22.614Z,9.30
2019-02-16T02:05:49.064Z,9.40
2019-02-16T02:08:15.455Z,9.07
2019-02-16T02:10:41.812Z,9.87
2019-02-16T02:13:08.379Z,8.20
2019-02-16T02:15:36.736Z,8.37
2019-02-16T02:18:03.104Z,9.43
2019-02-16T02:20:29.552Z,8.87
2019-02-16T02:22:55.955Z,8.20
2019-02-16T02:25:22.531Z,9.20
2019-02-16T02:27:48.910Z,9.63
2019-02-16T02:30:15.363Z,8.93
2019-02-16T02:32:41.758Z,8.90
2019-02-16T02:35:08.308Z,8.63
2019-02-16T02:37:34.695Z,8.73
2019-02-16T02:40:01.490Z,9.10
2019-02-16T02:42:28.036Z,9.10
2019-02-16T02:44:54.492Z,8.93
2019-02-16T02:47:20.874Z,9.97
2019-02-16T02:49:47.227Z,8.90
2019-02-16T02:52:13.775Z,9.67
2019-02-16T02:54:40.163Z,9.50
2019-02-16T02:57:06.514Z,10.63
2019-02-16T02:59:33.083Z,9.47
2019-02-16T03:01:59.552Z,9.30
2019-02-16T03:04:26.018Z,9.13
2019-02-16T03:06:52.360Z,8.60
2019-02-16T03:09:18.731Z,9.40
2019-02-16T03:11:45.179Z,9.97
2019-02-16T03:14:11.554Z,10.20
2019-02-16T03:16:37.897Z,10.00
2019-02-16T03:19:04.367Z,9.93
2019-02-16T03:21:30.837Z,10.00
2019-02-16T03:23:57.238Z,10.00
2019-02-16T03:26:25.580Z,10.60
2019-02-16T03:28:53.854Z,10.87
2019-02-16T03:31:22.242Z,9.57
2019-02-16T03:33:50.513Z,10.47
2019-02-16T03:36:16.871Z,9.53
2019-02-16T03:38:45.503Z,8.33
2019-02-16T03:41:11.877Z,8.07
2019-02-16T03:43:38.332Z,9.20
2019-02-16T03:46:04.701Z,9.00
2019-02-16T03:48:31.049Z,9.80
2019-02-16T03:50:57.417Z,9.30
2019-02-16T03:53:23.772Z,9.43
2019-02-16T03:55:50.238Z,9.83
2019-02-16T03:58:16.621Z,9.13
2019-02-16T04:00:43.082Z,9.53
2019-02-16T04:03:09.527Z,9.67
2019-02-16T05:59:34.348Z,9.13
2019-02-16T06:02:00.812Z,8.17
2019-02-16T06:04:27.183Z,8.17
2019-02-16T06:06:53.570Z,9.57
2019-02-16T06:09:19.933Z,8.07
2019-02-16T06:11:46.476Z,8.27
2019-02-16T06:14:12.939Z,8.23
2019-02-16T06:16:39.393Z,9.20
2019-02-16T06:19:05.759Z,8.17
2019-02-16T06:21:32.218Z,9.10
2019-02-16T06:23:58.683Z,9.07
2019-02-16T06:26:25.135Z,9.00
2019-02-16T06:28:51.499Z,11.00
2019-02-16T06:31:18.095Z,9.27
2019-02-16T06:33:44.563Z,8.23
2019-02-16T06:36:12.911Z,8.00
2019-02-16T06:38:39.280Z,9.60
2019-02-16T06:41:05.631Z,10.63
2019-02-16T06:43:32.020Z,11.00
2019-02-16T06:45:58.473Z,10.97
2019-02-16T06:48:24.923Z,11.80
2019-02-16T06:50:53.633Z,10.63
2019-02-16T06:53:19.987Z,9.93
2019-02-16T06:55:48.455Z,10.13
2019-02-16T06:58:18.331Z,10.33
2019-02-16T07:00:45.089Z,10.63
2019-02-16T07:03:11.435Z,10.43
2019-02-16T07:05:37.819Z,11.13
2019-02-16T07:08:04.176Z,11.70
2019-02-16T07:10:30.573Z,10.17
2019-02-16T07:12:56.928Z,12.10
2019-02-16T07:15:23.507Z,10.97
2019-02-16T07:17:51.887Z,11.03
2019-02-16T07:20:19.457Z,10.97
2019-02-16T07:22:45.820Z,10.53
2019-02-16T07:25:12.200Z,10.53
2019-02-16T07:27:38.555Z,10.73
2019-02-16T07:30:06.930Z,10.60
2019-02-16T07:32:33.531Z,11.97
2019-02-16T07:34:59.881Z,11.03
2019-02-16T07:37:26.692Z,12.53
2019-02-16T07:39:53.042Z,11.97
2019-02-16T07:42:19.607Z,11.20
2019-02-16T07:44:48.067Z,12.10
2019-02-16T07:47:16.542Z,12.33
2019-02-16T07:49:44.792Z,12.73
2019-02-16T07:52:13.216Z,13.30
2019-02-16T07:54:41.468Z,12.80
2019-02-16T07:57:09.772Z,17.37
2019-02-16T07:59:37.222Z,18.87
2019-02-16T08:02:06.452Z,16.37
2019-02-16T08:04:34.815Z,17.03
2019-02-16T08:07:08.820Z,20.23
2019-02-16T08:09:40.015Z,20.47
2019-02-16T08:12:17.240Z,20.67
2019-02-16T08:14:57.237Z,18.47
2019-02-16T08:17:28.254Z,14.23
2019-02-16T08:19:56.511Z,12.87
2019-02-16T08:22:24.801Z,12.97
2019-02-16T08:24:53.162Z,11.17
2019-02-16T08:27:21.457Z,13.40
2019-02-16T08:29:49.699Z,14.13
2019-02-16T08:32:18.023Z,15.20
2019-02-16T08:34:46.278Z,13.53
2019-02-16T08:37:14.560Z,13.53
2019-02-16T08:39:43.315Z,14.23
2019-02-16T08:42:11.603Z,14.27
2019-02-16T08:44:39.856Z,15.27
2019-02-16T08:47:08.264Z,14.47
2019-02-16T08:49:39.455Z,14.67
2019-02-16T08:52:07.710Z,14.37
2019-02-16T08:54:38.431Z,14.07
2019-02-16T08:57:06.684Z,15.60
2019-02-16T08:59:34.986Z,14.57
2019-02-16T09:02:03.265Z,15.57
2019-02-16T09:04:31.571Z,14.97
2019-02-16T09:06:59.826Z,14.57
2019-02-16T09:09:28.220Z,14.90
2019-02-16T09:11:56.468Z,14.67
2019-02-16T09:14:24.771Z,15.70
2019-02-16T09:16:53.021Z,17.57
2019-02-16T09:19:21.306Z,16.67
2019-02-16T09:21:49.555Z,15.17
2019-02-16T09:24:17.872Z,15.50
2019-02-16T09:26:46.098Z,14.07
2019-02-16T09:29:14.383Z,14.57
2019-02-16T09:31:42.769Z,13.77
2019-02-16T09:34:11.043Z,14.40
2019-02-16T09:36:39.311Z,15.37
2019-02-16T09:39:05.670Z,14.73
2019-02-16T09:41:33.955Z,14.73
2019-02-16T09:44:02.200Z,13.90
2019-02-16T09:46:30.491Z,14.80
2019-02-16T09:48:56.851Z,13.53
2019-02-16T09:51:25.135Z,14.20
2019-02-16T09:53:53.383Z,14.67
2019-02-16T09:56:21.660Z,13.60
2019-02-16T09:58:48.116Z,14.57
2019-02-16T10:01:16.703Z,13.73
2019-02-16T10:03:44.950Z,14.30
2019-02-16T10:06:13.745Z,14.77
2019-02-16T10:08:41.993Z,14.63
2019-02-16T10:11:10.380Z,13.93
2019-02-16T10:13:37.735Z,13.95
2019-02-16T10:16:06.038Z,13.13
2019-02-16T10:18:34.284Z,12.68
2019-02-16T10:21:02.570Z,14.78
2019-02-16T10:23:30.822Z,14.25
2019-02-16T10:26:02.020Z,14.18
2019-02-16T10:28:30.275Z,14.10
2019-02-16T10:31:00.665Z,14.80
2019-02-16T10:33:28.919Z,14.85
2019-02-16T10:35:57.190Z,14.13
2019-02-16T10:38:28.536Z,14.80
2019-02-16T10:40:54.892Z,14.13
2019-02-16T10:43:23.156Z,13.55
2019-02-16T10:45:51.428Z,14.40
2019-02-16T10:48:19.724Z,14.25
2019-02-16T10:50:47.971Z,14.10
2019-02-16T10:53:16.267Z,14.03
2019-02-16T10:55:44.513Z,13.68
2019-02-16T10:58:12.875Z,13.78
2019-02-16T11:00:41.123Z,13.62
2019-02-16T11:03:09.419Z,12.98
2019-02-16T11:05:37.667Z,14.10
2019-02-16T11:08:06.764Z,13.05
2019-02-16T11:10:35.055Z,13.50
2019-02-16T11:13:03.355Z,13.75
2019-02-16T11:15:31.608Z,13.83
2019-02-16T11:17:59.902Z,14.33
2019-02-16T11:20:28.190Z,14.05
2019-02-16T11:22:56.583Z,15.43
2019-02-16T11:25:25.012Z,14.93
2019-02-16T11:27:53.292Z,13.08
2019-02-16T11:30:21.699Z,13.88
2019-02-16T11:32:56.028Z,13.25
2019-02-16T11:35:24.380Z,14.58
2019-02-16T11:37:52.643Z,14.00
2019-02-16T11:40:20.889Z,13.50
2019-02-16T11:42:47.279Z,13.53
2019-02-16T11:45:15.634Z,13.90
2019-02-16T11:47:43.935Z,13.55
2019-02-16T11:50:12.257Z,13.55
2019-02-16T11:52:40.677Z,14.03
2019-02-16T11:55:09.224Z,14.43
2019-02-16T11:57:37.577Z,13.88
2019-02-16T12:00:07.793Z,14.00
2019-02-16T12:02:39.678Z,13.45
2019-02-16T12:05:06.463Z,13.20
2019-02-16T12:07:34.735Z,13.25
2019-02-16T12:10:05.922Z,12.65
2019-02-16T12:12:34.170Z,13.40
2019-02-16T12:15:05.480Z,12.15
2019-02-16T12:17:33.832Z,14.65
2019-02-16T12:20:02.232Z,12.90
2019-02-16T12:22:30.579Z,12.78
2019-02-16T12:25:05.706Z,12.65
2019-02-16T12:27:31.992Z,12.65
2019-02-16T12:30:00.405Z,13.48
2019-02-16T12:32:34.787Z,12.75
2019-02-16T12:35:03.191Z,12.65
2019-02-16T12:37:31.445Z,12.28
2019-02-16T12:39:59.835Z,13.40
2019-02-16T12:42:40.078Z,12.58
2019-02-16T12:45:09.490Z,13.78
2019-02-16T12:47:40.659Z,11.97
2019-02-16T12:50:09.060Z,12.98
2019-02-16T12:52:37.406Z,13.30
2019-02-16T12:55:14.398Z,13.10
2019-02-16T12:57:36.733Z,12.10
2019-02-16T13:00:06.816Z,13.10
2019-02-16T13:02:35.184Z,12.80
2019-02-16T13:05:03.573Z,12.33
2019-02-16T13:07:31.934Z,12.55
2019-02-16T13:10:00.337Z,12.40
2019-02-16T13:12:28.676Z,13.50
2019-02-16T13:14:58.563Z,12.90
2019-02-16T13:17:26.925Z,11.95
2019-02-16T13:19:55.182Z,12.55
2019-02-16T13:22:23.571Z,13.13
2019-02-16T13:24:51.923Z,11.60
2019-02-16T13:27:20.221Z,12.03
2019-02-16T13:29:48.584Z,13.15
2019-02-16T13:32:17.014Z,13.43
2019-02-16T13:34:45.363Z,12.30
2019-02-16T13:37:13.752Z,12.63
2019-02-16T13:39:42.010Z,11.60
2019-02-16T13:42:10.294Z,12.85
2019-02-16T13:44:44.523Z,12.35
2019-02-16T13:47:12.925Z,12.85
2019-02-16T13:49:41.271Z,11.78
2019-02-16T13:52:09.668Z,12.88
2019-02-16T13:54:37.928Z,12.58
2019-02-16T13:57:06.211Z,12.85
2019-02-16T13:59:34.493Z,12.95
2019-02-16T14:02:02.843Z,12.40
2019-02-16T14:04:31.191Z,13.00
2019-02-16T14:06:59.579Z,12.68
2019-02-16T14:09:27.928Z,12.50
2019-02-16T14:11:56.324Z,13.68
2019-02-16T14:14:24.603Z,12.13
2019-02-16T14:16:52.971Z,12.98
2019-02-16T14:19:19.381Z,12.98
2019-02-16T14:21:45.987Z,13.62
2019-02-16T14:24:12.532Z,13.70
2019-02-16T14:26:39.083Z,13.03
2019-02-16T14:29:05.551Z,13.25
2019-02-16T14:31:31.999Z,12.93
2019-02-16T14:33:58.517Z,13.60
2019-02-16T14:36:24.527Z,13.40
2019-02-16T14:38:52.995Z,13.20
2019-02-16T14:41:19.570Z,12.03
2019-02-16T14:43:46.255Z,13.08
2019-02-16T14:46:12.703Z,13.72
2019-02-16T14:48:39.112Z,12.85
2019-02-16T14:51:05.564Z,13.15
2019-02-16T14:53:32.040Z,13.80
2019-02-16T14:55:58.496Z,13.75
2019-02-16T14:58:24.887Z,12.93
2019-02-16T15:00:51.246Z,13.03
2019-02-16T15:03:17.726Z,13.20
2019-02-16T15:05:44.182Z,12.80
2019-02-16T15:08:10.779Z,12.93
2019-02-16T15:10:37.230Z,11.88
2019-02-16T15:13:03.779Z,9.30
2019-02-16T15:15:30.563Z,9.88
2019-02-16T15:17:57.120Z,9.33
2019-02-16T15:20:23.497Z,9.85
2019-02-16T15:22:49.895Z,8.38
2019-02-16T15:25:16.435Z,11.18
2019-02-16T15:27:42.800Z,10.80
2019-02-16T15:30:10.208Z,9.33
2019-02-16T15:32:36.717Z,10.93
2019-02-16T15:35:04.109Z,12.10
2019-02-16T15:37:30.504Z,9.33
2019-02-16T15:39:56.980Z,8.23
2019-02-16T15:42:23.535Z,8.43
2019-02-16T15:44:50.112Z,8.38
2019-02-16T15:47:16.567Z,8.48
2019-02-16T15:49:43.159Z,9.43
2019-02-16T15:52:09.633Z,8.23
2019-02-16T15:54:36.024Z,8.40
2019-02-16T15:57:02.503Z,7.08
2019-02-16T15:59:35.075Z,6.97
2019-02-16T16:01:57.388Z,6.97
2019-02-16T16:04:23.820Z,6.62
2019-02-16T16:06:50.298Z,6.97
2019-02-16T16:09:18.550Z,7.53
2019-02-16T16:11:46.951Z,6.87
2019-02-16T16:14:15.307Z,7.53
2019-02-16T16:16:43.708Z,9.98
2019-02-16T16:19:12.070Z,11.22
2019-02-16T16:21:40.466Z,8.08
2019-02-16T16:24:08.838Z,7.33
2019-02-16T16:26:37.250Z,7.22
2019-02-16T16:29:05.613Z,6.47
2019-02-16T16:31:35.827Z,6.87
2019-02-16T16:34:04.177Z,7.50
2019-02-16T16:36:32.551Z,7.53
2019-02-16T16:39:00.935Z,7.87
2019-02-16T16:41:29.307Z,8.17
2019-02-16T16:43:57.564Z,8.43
2019-02-16T16:46:25.971Z,8.50
2019-02-16T16:48:54.360Z,9.07
2019-02-16T16:51:22.799Z,8.20
2019-02-16T16:53:51.148Z,5.87
2019-02-16T16:56:28.149Z,5.63
2019-02-16T16:58:49.801Z,6.90
2019-02-16T17:01:18.160Z,8.57
2019-02-16T17:03:45.659Z,8.60
2019-02-16T17:06:14.011Z,8.43
2019-02-16T17:08:40.524Z,8.40
2019-02-16T17:11:08.879Z,7.97
2019-02-16T17:13:37.275Z,7.53
2019-02-16T17:16:05.631Z,26.70
2019-02-16T17:18:34.033Z,74.73
2019-02-16T17:21:02.364Z,17.20
2019-02-16T17:23:30.654Z,13.20
2019-02-16T17:25:59.021Z,11.30
2019-02-16T17:28:27.408Z,11.10
2019-02-16T17:30:55.660Z,13.27
2019-02-16T17:33:23.184Z,15.17
2019-02-16T17:35:51.539Z,17.07
2019-02-16T17:38:19.927Z,19.50
2019-02-16T17:40:48.284Z,21.20
2019-02-16T17:43:16.692Z,19.77
2019-02-16T17:45:44.936Z,22.93
2019-02-16T17:48:13.220Z,23.30
2019-02-16T17:50:41.648Z,14.03
2019-02-16T17:53:09.927Z,13.03
2019-02-16T17:55:41.275Z,14.37
2019-02-16T17:58:18.372Z,14.23
2019-02-16T18:00:46.751Z,17.70
2019-02-16T18:03:15.153Z,27.73
2019-02-16T18:05:43.517Z,17.60
2019-02-16T18:08:10.975Z,11.20
2019-02-16T18:10:39.247Z,11.13
2019-02-16T18:13:07.502Z,12.33
2019-02-16T18:15:35.896Z,16.00
2019-02-16T18:18:04.251Z,19.57
2019-02-16T18:20:32.653Z,19.87
2019-02-16T18:23:00.991Z,19.13
2019-02-16T18:25:29.351Z,19.00
2019-02-16T18:27:56.713Z,16.37
2019-02-16T18:30:25.010Z,15.17
2019-02-16T18:32:53.405Z,14.93
2019-02-16T18:35:23.982Z,15.53
2019-02-16T18:37:52.032Z,15.87
2019-02-16T18:40:20.582Z,14.53
2019-02-16T18:42:48.979Z,14.07
2019-02-16T18:45:17.464Z,12.07
2019-02-16T18:47:45.827Z,16.13
2019-02-16T18:50:14.123Z,16.13
2019-02-16T18:52:42.482Z,16.37
2019-02-16T18:55:11.455Z,16.70
2019-02-16T18:57:39.849Z,17.27
2019-02-16T19:00:12.548Z,18.40
2019-02-16T19:02:42.326Z,17.37
2019-02-16T19:05:10.766Z,15.70
2019-02-16T19:07:39.143Z,15.40
2019-02-16T19:10:07.716Z,15.50
2019-02-16T19:12:36.067Z,15.53
2019-02-16T19:15:05.078Z,13.70
2019-02-16T19:17:33.417Z,13.53
2019-02-16T19:20:01.767Z,14.33
2019-02-16T19:22:31.853Z,12.73
2019-02-16T19:24:58.220Z,13.27
2019-02-16T19:27:26.729Z,14.67
2019-02-16T19:29:55.081Z,14.27
2019-02-16T19:32:23.507Z,17.20
2019-02-16T19:34:51.847Z,13.57
2019-02-16T19:37:20.136Z,14.33
2019-02-16T19:39:48.495Z,13.93
2019-02-16T19:42:16.787Z,16.10
2019-02-16T19:44:45.035Z,14.33
2019-02-16T19:47:13.431Z,15.07
2019-02-16T19:49:41.790Z,14.43
2019-02-16T19:52:10.146Z,13.80
2019-02-16T19:54:38.393Z,14.20
2019-02-16T19:57:06.787Z,14.17
2019-02-16T19:59:35.067Z,15.80
2019-02-16T20:02:03.481Z,19.07
2019-02-16T20:04:31.829Z,18.60
2019-02-16T20:07:00.219Z,17.70
2019-02-16T20:09:33.497Z,20.03
2019-02-16T20:12:01.891Z,19.03
2019-02-16T20:14:30.139Z,14.53
2019-02-16T20:16:58.431Z,14.17
2019-02-16T20:19:26.787Z,14.50
2019-02-16T20:21:55.091Z,15.03
2019-02-16T20:24:23.338Z,15.97
2019-02-16T20:26:51.687Z,15.23
2019-02-16T20:29:20.100Z,15.10
2019-02-16T20:31:48.347Z,15.17
2019-02-16T20:34:16.747Z,15.13
2019-02-16T20:36:45.098Z,16.43
2019-02-16T20:39:15.540Z,16.13
2019-02-16T20:41:43.859Z,15.60
2019-02-16T20:44:12.502Z,15.83
2019-02-16T20:46:40.747Z,15.80
2019-02-16T20:49:11.944Z,16.33
2019-02-16T20:51:40.223Z,16.03
2019-02-16T20:54:08.602Z,18.47
2019-02-16T20:56:36.884Z,17.63
2019-02-16T20:59:11.127Z,15.27
2019-02-16T21:01:39.472Z,16.83
2019-02-16T21:04:07.783Z,15.57
2019-02-16T21:06:36.016Z,15.13
2019-02-16T21:09:06.211Z,14.83
2019-02-16T21:11:34.482Z,16.30
2019-02-16T21:14:02.857Z,18.57
2019-02-16T21:16:31.216Z,16.20
2019-02-16T21:19:00.565Z,16.40
2019-02-16T21:21:28.910Z,16.13
2019-02-16T21:23:57.305Z,15.60
2019-02-16T21:26:25.655Z,17.53
2019-02-16T21:28:54.047Z,21.07
2019-02-16T21:31:22.420Z,20.50
2019-02-16T21:33:50.839Z,21.07
2019-02-16T21:36:17.227Z,19.40
2019-02-16T21:38:45.476Z,19.63
2019-02-16T21:41:13.779Z,16.87
2019-02-16T21:43:42.138Z,19.47
2019-02-16T21:46:10.569Z,18.00
2019-02-16T21:48:38.920Z,17.77
2019-02-16T21:51:07.208Z,17.93
2019-02-16T21:53:36.479Z,18.57
2019-02-16T21:56:04.748Z,17.87
2019-02-16T21:58:33.099Z,18.47
2019-02-16T22:01:01.527Z,19.53
2019-02-16T22:03:29.876Z,16.93
2019-02-16T22:05:58.268Z,18.03
2019-02-16T22:08:26.519Z,16.43
2019-02-16T22:10:54.792Z,17.10
2019-02-16T22:13:21.235Z,16.67
2019-02-16T22:15:47.713Z,17.83
2019-02-16T22:18:14.059Z,16.67
2019-02-16T22:20:40.529Z,15.87
2019-02-16T22:23:06.986Z,17.43
2019-02-16T22:25:33.445Z,17.73
2019-02-16T22:27:59.888Z,17.37
2019-02-16T22:30:26.340Z,16.40
2019-02-16T22:32:52.735Z,16.50
2019-02-16T22:35:19.119Z,17.03
2019-02-16T22:37:45.507Z,16.77
2019-02-16T22:40:11.987Z,18.27
2019-02-16T22:42:38.376Z,17.37
2019-02-16T22:45:06.447Z,18.57
2019-02-16T22:47:32.927Z,18.67
2019-02-16T22:49:59.367Z,19.47
2019-02-16T22:52:25.835Z,17.97
2019-02-16T22:54:52.279Z,19.13
2019-02-16T22:57:18.855Z,17.37
2019-02-16T22:59:45.204Z,19.10
2019-02-16T23:02:12.075Z,19.60
2019-02-16T23:04:38.431Z,19.13
2019-02-16T23:07:04.883Z,20.73
2019-02-16T23:09:31.431Z,18.67
2019-02-16T23:11:57.807Z,19.63
2019-02-16T23:14:24.355Z,19.73
2019-02-16T23:16:50.759Z,21.03
2019-02-16T23:19:17.220Z,18.73
2019-02-16T23:21:43.672Z,18.37
2019-02-16T23:24:10.037Z,19.67
2019-02-16T23:26:36.480Z,19.10
2019-02-16T23:29:02.963Z,18.67
2019-02-16T23:31:29.362Z,18.47
2019-02-16T23:33:55.758Z,18.90
2019-02-16T23:36:22.205Z,17.73
2019-02-16T23:38:50.026Z,19.17
2019-02-16T23:41:16.374Z,17.97
2019-02-16T23:43:42.952Z,18.77
2019-02-16T23:46:09.395Z,18.63
2019-02-16T23:48:35.783Z,19.67
2019-02-16T23:51:02.236Z,17.57
2019-02-16T23:53:28.707Z,17.87
2019-02-16T23:55:55.252Z,19.23
2019-02-16T23:58:21.721Z,17.77
